sensor_id;sensor_type;location;lat;lon;timestamp;pressure;altitude;pressure_sealevel;temperature;humidity
48095;BME280;33874;52.070;-0.516;2023-02-14T00:01:22;102836.37;;;3.92;78.50
48095;BME280;33874;52.070;-0.516;2023-02-14T00:03:49;102836.09;;;3.89;78.48
48095;BME280;33874;52.070;-0.516;2023-02-14T00:06:17;102836.42;;;3.82;78.35
48095;BME280;33874;52.070;-0.516;2023-02-14T00:08:45;102839.51;;;3.76;78.26
48095;BME280;33874;52.070;-0.516;2023-02-14T00:11:13;102840.86;;;3.70;78.30
48095;BME280;33874;52.070;-0.516;2023-02-14T00:13:41;102840.46;;;3.65;78.25
48095;BME280;33874;52.070;-0.516;2023-02-14T00:16:32;102840.73;;;3.61;78.48
48095;BME280;33874;52.070;-0.516;2023-02-14T00:19:00;102841.99;;;3.58;78.47
48095;BME280;33874;52.070;-0.516;2023-02-14T00:21:32;102840.73;;;3.52;78.05
48095;BME280;33874;52.070;-0.516;2023-02-14T00:24:06;102838.80;;;3.46;77.97
48095;BME280;33874;52.070;-0.516;2023-02-14T00:26:35;102838.24;;;3.40;77.98
48095;BME280;33874;52.070;-0.516;2023-02-14T00:29:06;102834.35;;;3.35;78.24
48095;BME280;33874;52.070;-0.516;2023-02-14T00:31:34;102832.33;;;3.32;78.41
48095;BME280;33874;52.070;-0.516;2023-02-14T00:34:05;102832.02;;;3.30;78.41
48095;BME280;33874;52.070;-0.516;2023-02-14T00:36:33;102830.67;;;3.28;78.43
48095;BME280;33874;52.070;-0.516;2023-02-14T00:39:03;102824.97;;;3.26;78.60
48095;BME280;33874;52.070;-0.516;2023-02-14T00:41:31;102821.52;;;3.25;78.60
48095;BME280;33874;52.070;-0.516;2023-02-14T00:44:00;102819.79;;;3.16;77.90
48095;BME280;33874;52.070;-0.516;2023-02-14T00:46:28;102821.56;;;3.06;77.59
48095;BME280;33874;52.070;-0.516;2023-02-14T00:48:56;102827.54;;;3.02;77.92
48095;BME280;33874;52.070;-0.516;2023-02-14T00:51:24;102830.73;;;3.00;78.03
48095;BME280;33874;52.070;-0.516;2023-02-14T00:53:52;102827.15;;;2.96;78.11
48095;BME280;33874;52.070;-0.516;2023-02-14T00:56:20;102829.42;;;2.95;78.37
48095;BME280;33874;52.070;-0.516;2023-02-14T00:58:49;102829.11;;;2.94;78.37
48095;BME280;33874;52.070;-0.516;2023-02-14T01:01:17;102827.77;;;2.91;78.40
48095;BME280;33874;52.070;-0.516;2023-02-14T01:03:45;102823.49;;;2.87;78.41
48095;BME280;33874;52.070;-0.516;2023-02-14T01:06:13;102826.34;;;2.84;78.37
48095;BME280;33874;52.070;-0.516;2023-02-14T01:08:41;102822.08;;;2.80;78.32
48095;BME280;33874;52.070;-0.516;2023-02-14T01:11:11;102823.54;;;2.76;78.09
48095;BME280;33874;52.070;-0.516;2023-02-14T01:13:40;102821.70;;;2.72;78.01
48095;BME280;33874;52.070;-0.516;2023-02-14T01:16:09;102817.27;;;2.68;77.91
48095;BME280;33874;52.070;-0.516;2023-02-14T01:18:39;102818.74;;;2.63;77.92
48095;BME280;33874;52.070;-0.516;2023-02-14T01:21:42;102815.87;;;2.59;77.90
48095;BME280;33874;52.070;-0.516;2023-02-14T01:24:04;102816.11;;;2.55;77.86
48095;BME280;33874;52.070;-0.516;2023-02-14T01:26:32;102813.73;;;2.53;77.98
48095;BME280;33874;52.070;-0.516;2023-02-14T01:29:03;102817.98;;;2.48;77.83
48095;BME280;33874;52.070;-0.516;2023-02-14T01:31:35;102820.53;;;2.41;77.46
48095;BME280;33874;52.070;-0.516;2023-02-14T01:34:03;102821.31;;;2.36;77.53
48095;BME280;33874;52.070;-0.516;2023-02-14T01:36:32;102818.39;;;2.34;77.74
48095;BME280;33874;52.070;-0.516;2023-02-14T01:39:06;102814.41;;;2.33;77.89
48095;BME280;33874;52.070;-0.516;2023-02-14T01:41:36;102820.06;;;2.28;77.58
48095;BME280;33874;52.070;-0.516;2023-02-14T01:44:05;102815.83;;;2.23;77.53
48095;BME280;33874;52.070;-0.516;2023-02-14T01:46:35;102813.28;;;2.19;77.71
48095;BME280;33874;52.070;-0.516;2023-02-14T01:49:13;102814.92;;;2.14;77.51
48095;BME280;33874;52.070;-0.516;2023-02-14T01:51:42;102808.77;;;2.10;77.58
48095;BME280;33874;52.070;-0.516;2023-02-14T01:54:11;102810.55;;;2.05;77.41
48095;BME280;33874;52.070;-0.516;2023-02-14T01:56:40;102809.60;;;2.00;77.63
48095;BME280;33874;52.070;-0.516;2023-02-14T01:59:10;102809.84;;;1.96;77.73
48095;BME280;33874;52.070;-0.516;2023-02-14T02:01:39;102812.34;;;1.92;77.64
48095;BME280;33874;52.070;-0.516;2023-02-14T02:04:09;102805.85;;;1.85;77.35
48095;BME280;33874;52.070;-0.516;2023-02-14T02:06:48;102805.41;;;1.80;77.26
48095;BME280;33874;52.070;-0.516;2023-02-14T02:09:23;102806.68;;;1.76;77.49
48095;BME280;33874;52.070;-0.516;2023-02-14T02:11:54;102806.90;;;1.74;77.58
48095;BME280;33874;52.070;-0.516;2023-02-14T02:14:22;102807.63;;;1.72;77.81
48095;BME280;33874;52.070;-0.516;2023-02-14T02:33:05;102791.75;;;1.67;78.04
48095;BME280;33874;52.070;-0.516;2023-02-14T02:45:47;102784.40;;;1.36;76.58
48095;BME280;33874;52.070;-0.516;2023-02-14T02:48:40;102784.02;;;1.26;76.49
48095;BME280;33874;52.070;-0.516;2023-02-14T02:51:11;102780.45;;;1.20;76.98
48095;BME280;33874;52.070;-0.516;2023-02-14T02:54:08;102783.77;;;1.18;77.13
48095;BME280;33874;52.070;-0.516;2023-02-14T02:56:38;102789.71;;;1.15;77.06
48095;BME280;33874;52.070;-0.516;2023-02-14T03:01:55;102777.54;;;1.05;77.03
48095;BME280;33874;52.070;-0.516;2023-02-14T03:04:25;102781.38;;;1.03;77.16
48095;BME280;33874;52.070;-0.516;2023-02-14T03:07:13;102776.43;;;0.96;76.84
48095;BME280;33874;52.070;-0.516;2023-02-14T03:10:21;102776.17;;;0.90;76.83
48095;BME280;33874;52.070;-0.516;2023-02-14T03:18:21;102771.46;;;0.78;77.11
48095;BME280;33874;52.070;-0.516;2023-02-14T03:26:38;102775.86;;;0.71;77.15
48095;BME280;33874;52.070;-0.516;2023-02-14T03:29:28;102770.52;;;0.68;77.18
48095;BME280;33874;52.070;-0.516;2023-02-14T03:37:01;102764.63;;;0.55;77.28
48095;BME280;33874;52.070;-0.516;2023-02-14T03:39:32;102759.27;;;0.53;77.34
48095;BME280;33874;52.070;-0.516;2023-02-14T03:42:12;102763.06;;;0.55;77.91
48095;BME280;33874;52.070;-0.516;2023-02-14T03:44:42;102758.02;;;0.58;77.59
48095;BME280;33874;52.070;-0.516;2023-02-14T03:47:13;102763.16;;;0.60;77.58
48095;BME280;33874;52.070;-0.516;2023-02-14T03:49:47;102762.21;;;0.53;77.64
48095;BME280;33874;52.070;-0.516;2023-02-14T03:52:17;102761.73;;;0.51;77.34
48095;BME280;33874;52.070;-0.516;2023-02-14T03:54:46;102762.83;;;0.45;77.20
48095;BME280;33874;52.070;-0.516;2023-02-14T03:57:20;102758.20;;;0.41;77.48
48095;BME280;33874;52.070;-0.516;2023-02-14T03:59:51;102758.89;;;0.41;77.96
48095;BME280;33874;52.070;-0.516;2023-02-14T04:02:30;102754.70;;;0.44;78.27
48095;BME280;33874;52.070;-0.516;2023-02-14T04:04:59;102752.93;;;0.47;78.39
48095;BME280;33874;52.070;-0.516;2023-02-14T04:07:28;102751.35;;;0.50;78.39
48095;BME280;33874;52.070;-0.516;2023-02-14T04:09:56;102754.55;;;0.42;77.72
48095;BME280;33874;52.070;-0.516;2023-02-14T04:12:24;102755.77;;;0.41;78.36
48095;BME280;33874;52.070;-0.516;2023-02-14T04:15:04;102758.20;;;0.40;78.13
48095;BME280;33874;52.070;-0.516;2023-02-14T04:17:32;102751.85;;;0.35;77.95
48095;BME280;33874;52.070;-0.516;2023-02-14T04:20:19;102748.70;;;0.39;78.65
48095;BME280;33874;52.070;-0.516;2023-02-14T04:22:48;102751.09;;;0.42;78.49
48095;BME280;33874;52.070;-0.516;2023-02-14T04:25:18;102747.61;;;0.42;78.71
48095;BME280;33874;52.070;-0.516;2023-02-14T04:27:46;102747.98;;;0.42;78.57
48095;BME280;33874;52.070;-0.516;2023-02-14T04:30:14;102742.45;;;0.41;78.56
48095;BME280;33874;52.070;-0.516;2023-02-14T04:32:44;102740.36;;;0.41;78.49
48095;BME280;33874;52.070;-0.516;2023-02-14T04:35:13;102737.06;;;0.42;78.79
48095;BME280;33874;52.070;-0.516;2023-02-14T04:37:41;102736.41;;;0.40;78.43
48095;BME280;33874;52.070;-0.516;2023-02-14T04:40:10;102732.80;;;0.37;78.54
48095;BME280;33874;52.070;-0.516;2023-02-14T04:42:38;102732.34;;;0.32;77.91
48095;BME280;33874;52.070;-0.516;2023-02-14T04:45:06;102729.45;;;0.28;78.33
48095;BME280;33874;52.070;-0.516;2023-02-14T04:47:34;102726.53;;;0.25;78.25
48095;BME280;33874;52.070;-0.516;2023-02-14T04:50:02;102729.50;;;0.23;78.17
48095;BME280;33874;52.070;-0.516;2023-02-14T04:52:30;102733.51;;;0.19;78.05
48095;BME280;33874;52.070;-0.516;2023-02-14T04:54:58;102735.30;;;0.12;77.78
48095;BME280;33874;52.070;-0.516;2023-02-14T04:57:26;102737.09;;;0.06;77.49
48095;BME280;33874;52.070;-0.516;2023-02-14T04:59:54;102729.85;;;0.03;78.02
48095;BME280;33874;52.070;-0.516;2023-02-14T05:02:22;102733.13;;;0.04;78.35
48095;BME280;33874;52.070;-0.516;2023-02-14T05:04:51;102730.55;;;0.03;78.20
48095;BME280;33874;52.070;-0.516;2023-02-14T05:07:19;102725.20;;;0.03;78.35
48095;BME280;33874;52.070;-0.516;2023-02-14T05:09:47;102727.25;;;0.04;78.32
48095;BME280;33874;52.070;-0.516;2023-02-14T05:12:15;102733.66;;;0.03;78.27
48095;BME280;33874;52.070;-0.516;2023-02-14T05:14:43;102729.38;;;0.00;78.65
48095;BME280;33874;52.070;-0.516;2023-02-14T05:17:14;102735.92;;;0.02;78.28
48095;BME280;33874;52.070;-0.516;2023-02-14T05:19:43;102746.67;;;-0.02;78.15
48095;BME280;33874;52.070;-0.516;2023-02-14T05:22:32;102732.70;;;-0.04;78.34
48095;BME280;33874;52.070;-0.516;2023-02-14T05:24:59;102735.98;;;-0.03;78.93
48095;BME280;33874;52.070;-0.516;2023-02-14T05:27:27;102745.49;;;-0.06;78.58
48095;BME280;33874;52.070;-0.516;2023-02-14T05:32:43;102749.66;;;-0.07;78.74
48095;BME280;33874;52.070;-0.516;2023-02-14T05:35:11;102753.79;;;-0.05;78.80
48095;BME280;33874;52.070;-0.516;2023-02-14T05:37:39;102757.24;;;-0.04;78.44
48095;BME280;33874;52.070;-0.516;2023-02-14T05:40:10;102756.34;;;-0.02;78.92
48095;BME280;33874;52.070;-0.516;2023-02-14T05:46:04;102764.13;;;0.00;78.94
48095;BME280;33874;52.070;-0.516;2023-02-14T05:49:04;102763.43;;;0.00;78.88
48095;BME280;33874;52.070;-0.516;2023-02-14T05:51:34;102763.08;;;-0.01;78.85
48095;BME280;33874;52.070;-0.516;2023-02-14T05:54:02;102757.58;;;-0.03;78.92
48095;BME280;33874;52.070;-0.516;2023-02-14T05:59:33;102772.65;;;-0.08;78.66
48095;BME280;33874;52.070;-0.516;2023-02-14T06:02:09;102772.35;;;-0.14;78.74
48095;BME280;33874;52.070;-0.516;2023-02-14T06:04:42;102763.20;;;-0.16;78.63
48095;BME280;33874;52.070;-0.516;2023-02-14T06:07:15;102762.18;;;-0.17;78.64
48095;BME280;33874;52.070;-0.516;2023-02-14T06:13:02;102757.32;;;-0.14;79.20
48095;BME280;33874;52.070;-0.516;2023-02-14T06:15:43;102765.30;;;-0.17;78.76
48095;BME280;33874;52.070;-0.516;2023-02-14T06:18:13;102760.15;;;-0.22;78.53
48095;BME280;33874;52.070;-0.516;2023-02-14T06:20:41;102764.85;;;-0.25;79.00
48095;BME280;33874;52.070;-0.516;2023-02-14T06:23:10;102765.71;;;-0.27;78.84
48095;BME280;33874;52.070;-0.516;2023-02-14T06:25:41;102767.28;;;-0.30;78.64
48095;BME280;33874;52.070;-0.516;2023-02-14T06:28:11;102772.86;;;-0.35;78.35
48095;BME280;33874;52.070;-0.516;2023-02-14T06:30:42;102775.16;;;-0.45;78.37
48095;BME280;33874;52.070;-0.516;2023-02-14T06:33:31;102770.23;;;-0.55;78.44
48095;BME280;33874;52.070;-0.516;2023-02-14T06:39:00;102783.78;;;-0.69;78.43
48095;BME280;33874;52.070;-0.516;2023-02-14T06:41:36;102788.96;;;-0.70;78.40
48095;BME280;33874;52.070;-0.516;2023-02-14T06:44:09;102792.41;;;-0.69;78.94
48095;BME280;33874;52.070;-0.516;2023-02-14T06:49:44;102793.45;;;-0.68;79.15
48095;BME280;33874;52.070;-0.516;2023-02-14T06:52:34;102792.70;;;-0.59;79.58
48095;BME280;33874;52.070;-0.516;2023-02-14T06:55:26;102796.65;;;-0.55;79.32
48095;BME280;33874;52.070;-0.516;2023-02-14T06:58:03;102792.63;;;-0.46;79.87
48095;BME280;33874;52.070;-0.516;2023-02-14T07:01:00;102800.34;;;-0.36;80.03
48095;BME280;33874;52.070;-0.516;2023-02-14T07:03:32;102807.03;;;-0.29;80.00
48095;BME280;33874;52.070;-0.516;2023-02-14T07:09:20;102799.16;;;-0.15;80.87
48095;BME280;33874;52.070;-0.516;2023-02-14T07:11:48;102798.73;;;-0.05;81.04
48095;BME280;33874;52.070;-0.516;2023-02-14T07:14:16;102797.12;;;0.02;81.17
48095;BME280;33874;52.070;-0.516;2023-02-14T07:16:51;102805.52;;;0.10;81.31
48095;BME280;33874;52.070;-0.516;2023-02-14T07:34:58;102816.15;;;0.58;81.32
48095;BME280;33874;52.070;-0.516;2023-02-14T07:37:54;102814.66;;;0.68;81.65
48095;BME280;33874;52.070;-0.516;2023-02-14T07:40:35;102813.17;;;0.77;81.69
48095;BME280;33874;52.070;-0.516;2023-02-14T07:43:06;102812.43;;;0.83;81.48
48095;BME280;33874;52.070;-0.516;2023-02-14T07:46:15;102815.33;;;0.88;81.15
48095;BME280;33874;52.070;-0.516;2023-02-14T07:48:47;102820.14;;;0.88;80.62
48095;BME280;33874;52.070;-0.516;2023-02-14T08:00:47;102823.42;;;0.90;81.27
48095;BME280;33874;52.070;-0.516;2023-02-14T08:06:19;102830.29;;;1.09;82.14
48095;BME280;33874;52.070;-0.516;2023-02-14T08:12:03;102819.90;;;1.24;81.72
48095;BME280;33874;52.070;-0.516;2023-02-14T08:14:53;102818.90;;;1.33;81.91
48095;BME280;33874;52.070;-0.516;2023-02-14T08:21:01;102820.07;;;1.50;82.49
48095;BME280;33874;52.070;-0.516;2023-02-14T08:23:31;102818.86;;;1.62;82.88
48095;BME280;33874;52.070;-0.516;2023-02-14T08:26:28;102812.44;;;1.74;82.90
48095;BME280;33874;52.070;-0.516;2023-02-14T08:32:18;102819.67;;;1.99;83.17
48095;BME280;33874;52.070;-0.516;2023-02-14T08:35:08;102818.75;;;2.13;83.58
48095;BME280;33874;52.070;-0.516;2023-02-14T08:37:39;102823.26;;;2.25;83.32
48095;BME280;33874;52.070;-0.516;2023-02-14T08:43:38;102829.13;;;2.46;83.11
48095;BME280;33874;52.070;-0.516;2023-02-14T08:46:09;102829.65;;;2.55;83.24
48095;BME280;33874;52.070;-0.516;2023-02-14T08:51:44;102827.14;;;2.79;83.34
48095;BME280;33874;52.070;-0.516;2023-02-14T08:54:33;102821.69;;;2.91;83.34
48095;BME280;33874;52.070;-0.516;2023-02-14T08:57:04;102817.69;;;3.00;83.21
48095;BME280;33874;52.070;-0.516;2023-02-14T09:05:30;102816.98;;;3.26;83.17
48095;BME280;33874;52.070;-0.516;2023-02-14T09:11:29;102819.38;;;3.44;83.23
48095;BME280;33874;52.070;-0.516;2023-02-14T09:14:26;102821.63;;;3.52;83.25
48095;BME280;33874;52.070;-0.516;2023-02-14T09:17:09;102819.85;;;3.61;83.15
48095;BME280;33874;52.070;-0.516;2023-02-14T09:20:19;102825.23;;;3.69;82.87
48095;BME280;33874;52.070;-0.516;2023-02-14T09:26:07;102821.95;;;3.83;82.56
48095;BME280;33874;52.070;-0.516;2023-02-14T09:28:58;102818.58;;;3.87;82.13
48095;BME280;33874;52.070;-0.516;2023-02-14T09:52:47;102810.01;;;4.37;82.14
48095;BME280;33874;52.070;-0.516;2023-02-14T09:55:27;102807.38;;;4.45;82.29
48095;BME280;33874;52.070;-0.516;2023-02-14T09:58:04;102808.12;;;4.56;82.60
48095;BME280;33874;52.070;-0.516;2023-02-14T10:11:08;102799.35;;;5.02;82.18
48095;BME280;33874;52.070;-0.516;2023-02-14T10:18:10;102797.65;;;5.13;81.70
48095;BME280;33874;52.070;-0.516;2023-02-14T11:03:55;102800.64;;;5.80;81.31
48095;BME280;33874;52.070;-0.516;2023-02-14T11:06:43;102793.36;;;5.78;80.87
48095;BME280;33874;52.070;-0.516;2023-02-14T11:15:34;102793.85;;;6.28;81.87
48095;BME280;33874;52.070;-0.516;2023-02-14T11:30:19;102763.01;;;7.08;81.11
48095;BME280;33874;52.070;-0.516;2023-02-14T11:35:59;102761.25;;;7.26;80.50
48095;BME280;33874;52.070;-0.516;2023-02-14T11:42:30;102761.67;;;7.24;79.92
48095;BME280;33874;52.070;-0.516;2023-02-14T11:45:04;102760.70;;;7.22;79.78
48095;BME280;33874;52.070;-0.516;2023-02-14T11:47:37;102752.17;;;7.25;80.02
48095;BME280;33874;52.070;-0.516;2023-02-14T11:50:25;102746.90;;;7.31;80.12
48095;BME280;33874;52.070;-0.516;2023-02-14T12:05:46;102741.27;;;7.41;80.13
48095;BME280;33874;52.070;-0.516;2023-02-14T12:08:33;102738.08;;;7.37;79.67
48095;BME280;33874;52.070;-0.516;2023-02-14T12:33:42;102701.13;;;7.51;79.84
48095;BME280;33874;52.070;-0.516;2023-02-14T13:10:49;102652.59;;;8.33;80.61
48095;BME280;33874;52.070;-0.516;2023-02-14T13:16:34;102649.21;;;8.43;80.32
48095;BME280;33874;52.070;-0.516;2023-02-14T13:34:36;102627.47;;;8.58;80.09
48095;BME280;33874;52.070;-0.516;2023-02-14T13:52:45;102615.70;;;8.99;80.29
48095;BME280;33874;52.070;-0.516;2023-02-14T13:55:34;102611.41;;;9.08;80.33
48095;BME280;33874;52.070;-0.516;2023-02-14T13:58:12;102609.05;;;9.17;80.40
48095;BME280;33874;52.070;-0.516;2023-02-14T14:15:32;102597.83;;;9.62;80.12
48095;BME280;33874;52.070;-0.516;2023-02-14T14:21:58;102583.71;;;9.74;79.98
48095;BME280;33874;52.070;-0.516;2023-02-14T14:26:47;102577.77;;;9.87;80.11
48095;BME280;33874;52.070;-0.516;2023-02-14T14:32:26;102574.47;;;10.02;80.14
48095;BME280;33874;52.070;-0.516;2023-02-14T14:41:47;102559.23;;;10.28;80.18
48095;BME280;33874;52.070;-0.516;2023-02-14T14:44:31;102558.63;;;10.36;80.02
48095;BME280;33874;52.070;-0.516;2023-02-14T15:02:39;102540.68;;;10.73;79.14
48095;BME280;33874;52.070;-0.516;2023-02-14T15:13:59;102532.09;;;10.89;78.79
48095;BME280;33874;52.070;-0.516;2023-02-14T15:25:08;102528.51;;;10.93;78.03
48095;BME280;33874;52.070;-0.516;2023-02-14T15:28:40;102525.33;;;10.90;77.98
48095;BME280;33874;52.070;-0.516;2023-02-14T15:33:56;102516.85;;;10.88;77.67
48095;BME280;33874;52.070;-0.516;2023-02-14T15:36:29;102514.69;;;10.88;77.61
48095;BME280;33874;52.070;-0.516;2023-02-14T15:39:01;102514.33;;;10.88;77.49
48095;BME280;33874;52.070;-0.516;2023-02-14T15:41:31;102510.70;;;10.87;77.38
48095;BME280;33874;52.070;-0.516;2023-02-14T15:44:04;102508.73;;;10.85;77.30
48095;BME280;33874;52.070;-0.516;2023-02-14T15:46:41;102506.27;;;10.82;77.20
48095;BME280;33874;52.070;-0.516;2023-02-14T15:49:10;102505.85;;;10.83;77.21
48095;BME280;33874;52.070;-0.516;2023-02-14T15:51:41;102508.02;;;10.85;77.15
48095;BME280;33874;52.070;-0.516;2023-02-14T15:57:37;102506.52;;;10.87;76.79
48095;BME280;33874;52.070;-0.516;2023-02-14T16:03:36;102502.64;;;10.90;76.39
48095;BME280;33874;52.070;-0.516;2023-02-14T16:18:59;102499.67;;;10.59;75.11
48095;BME280;33874;52.070;-0.516;2023-02-14T16:24:22;102495.60;;;10.38;74.74
48095;BME280;33874;52.070;-0.516;2023-02-14T16:27:02;102498.16;;;10.26;74.53
48095;BME280;33874;52.070;-0.516;2023-02-14T16:29:34;102498.58;;;10.15;74.09
48095;BME280;33874;52.070;-0.516;2023-02-14T16:32:16;102498.77;;;10.05;73.82
48095;BME280;33874;52.070;-0.516;2023-02-14T16:34:45;102499.02;;;9.94;73.44
48095;BME280;33874;52.070;-0.516;2023-02-14T16:37:22;102498.86;;;9.84;73.21
48095;BME280;33874;52.070;-0.516;2023-02-14T16:39:57;102499.13;;;9.73;73.11
48095;BME280;33874;52.070;-0.516;2023-02-14T16:42:35;102502.05;;;9.64;73.12
48095;BME280;33874;52.070;-0.516;2023-02-14T16:51:26;102494.39;;;9.29;72.91
48095;BME280;33874;52.070;-0.516;2023-02-14T16:57:09;102500.98;;;9.07;72.94
48095;BME280;33874;52.070;-0.516;2023-02-14T16:59:54;102503.27;;;8.96;72.99
48095;BME280;33874;52.070;-0.516;2023-02-14T17:05:54;102501.91;;;8.71;73.15
48095;BME280;33874;52.070;-0.516;2023-02-14T17:08:45;102501.39;;;8.59;73.25
48095;BME280;33874;52.070;-0.516;2023-02-14T17:11:25;102503.52;;;8.45;73.36
48095;BME280;33874;52.070;-0.516;2023-02-14T17:17:05;102501.85;;;8.16;73.49
48095;BME280;33874;52.070;-0.516;2023-02-14T17:19:33;102500.67;;;8.04;73.48
48095;BME280;33874;52.070;-0.516;2023-02-14T17:25:02;102513.05;;;7.78;73.59
48095;BME280;33874;52.070;-0.516;2023-02-14T17:27:30;102513.70;;;7.67;73.57
48095;BME280;33874;52.070;-0.516;2023-02-14T17:29:58;102512.52;;;7.59;73.71
48095;BME280;33874;52.070;-0.516;2023-02-14T17:32:27;102512.54;;;7.51;74.06
48095;BME280;33874;52.070;-0.516;2023-02-14T17:34:58;102511.56;;;7.44;74.34
48095;BME280;33874;52.070;-0.516;2023-02-14T17:37:29;102509.70;;;7.39;74.64
48095;BME280;33874;52.070;-0.516;2023-02-14T17:40:05;102509.05;;;7.34;74.99
48095;BME280;33874;52.070;-0.516;2023-02-14T17:42:37;102506.41;;;7.31;75.02
48095;BME280;33874;52.070;-0.516;2023-02-14T17:45:11;102506.70;;;7.28;75.05
48095;BME280;33874;52.070;-0.516;2023-02-14T17:47:45;102507.86;;;7.26;75.37
48095;BME280;33874;52.070;-0.516;2023-02-14T17:50:16;102508.14;;;7.23;75.60
48095;BME280;33874;52.070;-0.516;2023-02-14T17:52:45;102506.58;;;7.18;75.79
48095;BME280;33874;52.070;-0.516;2023-02-14T17:55:18;102509.27;;;7.13;75.68
48095;BME280;33874;52.070;-0.516;2023-02-14T17:57:46;102501.79;;;7.08;75.55
48095;BME280;33874;52.070;-0.516;2023-02-14T18:00:28;102502.48;;;7.03;75.56
48095;BME280;33874;52.070;-0.516;2023-02-14T18:02:59;102501.35;;;6.98;75.71
48095;BME280;33874;52.070;-0.516;2023-02-14T18:05:27;102498.38;;;6.93;75.88
48095;BME280;33874;52.070;-0.516;2023-02-14T18:07:58;102498.79;;;6.88;75.57
48095;BME280;33874;52.070;-0.516;2023-02-14T18:10:27;102497.38;;;6.80;75.72
48095;BME280;33874;52.070;-0.516;2023-02-14T18:13:13;102498.59;;;6.71;75.70
48095;BME280;33874;52.070;-0.516;2023-02-14T18:15:42;102498.48;;;6.65;75.74
48095;BME280;33874;52.070;-0.516;2023-02-14T18:18:21;102494.23;;;6.58;75.89
48095;BME280;33874;52.070;-0.516;2023-02-14T18:20:55;102496.67;;;6.54;76.17
48095;BME280;33874;52.070;-0.516;2023-02-14T18:23:27;102498.96;;;6.49;76.14
48095;BME280;33874;52.070;-0.516;2023-02-14T18:26:00;102496.15;;;6.45;76.44
48095;BME280;33874;52.070;-0.516;2023-02-14T18:28:31;102494.56;;;6.41;76.37
48095;BME280;33874;52.070;-0.516;2023-02-14T18:31:09;102491.56;;;6.37;76.32
48095;BME280;33874;52.070;-0.516;2023-02-14T18:33:40;102491.42;;;6.32;76.25
48095;BME280;33874;52.070;-0.516;2023-02-14T18:36:30;102487.64;;;6.26;76.25
48095;BME280;33874;52.070;-0.516;2023-02-14T18:39:00;102487.02;;;6.15;75.95
48095;BME280;33874;52.070;-0.516;2023-02-14T18:41:50;102487.10;;;6.08;76.07
48095;BME280;33874;52.070;-0.516;2023-02-14T18:44:23;102483.31;;;6.02;76.40
48095;BME280;33874;52.070;-0.516;2023-02-14T18:46:52;102484.52;;;5.98;76.46
48095;BME280;33874;52.070;-0.516;2023-02-14T18:49:20;102481.20;;;5.93;76.74
48095;BME280;33874;52.070;-0.516;2023-02-14T18:52:04;102477.04;;;5.88;76.96
48095;BME280;33874;52.070;-0.516;2023-02-14T18:57:43;102467.69;;;5.76;76.87
48095;BME280;33874;52.070;-0.516;2023-02-14T19:00:12;102465.59;;;5.72;76.91
48095;BME280;33874;52.070;-0.516;2023-02-14T19:02:49;102464.89;;;5.67;76.61
48095;BME280;33874;52.070;-0.516;2023-02-14T19:05:22;102459.36;;;5.61;76.65
48095;BME280;33874;52.070;-0.516;2023-02-14T19:07:58;102457.29;;;5.55;76.57
48095;BME280;33874;52.070;-0.516;2023-02-14T19:10:27;102451.54;;;5.50;76.70
48095;BME280;33874;52.070;-0.516;2023-02-14T19:12:57;102452.74;;;5.46;76.70
48095;BME280;33874;52.070;-0.516;2023-02-14T19:15:26;102452.56;;;5.42;76.94
48095;BME280;33874;52.070;-0.516;2023-02-14T19:17:54;102455.85;;;5.38;76.90
48095;BME280;33874;52.070;-0.516;2023-02-14T19:20:22;102451.11;;;5.33;76.81
48095;BME280;33874;52.070;-0.516;2023-02-14T19:22:50;102452.96;;;5.30;76.94
48095;BME280;33874;52.070;-0.516;2023-02-14T19:25:18;102454.32;;;5.26;77.15
48095;BME280;33874;52.070;-0.516;2023-02-14T19:27:49;102454.30;;;5.22;77.03
48095;BME280;33874;52.070;-0.516;2023-02-14T19:30:20;102458.27;;;5.18;77.36
48095;BME280;33874;52.070;-0.516;2023-02-14T19:32:56;102451.43;;;5.14;77.30
48095;BME280;33874;52.070;-0.516;2023-02-14T19:35:27;102450.90;;;5.10;77.04
48095;BME280;33874;52.070;-0.516;2023-02-14T19:41:26;102455.02;;;4.96;76.80
48095;BME280;33874;52.070;-0.516;2023-02-14T19:43:54;102453.55;;;4.88;76.76
48095;BME280;33874;52.070;-0.516;2023-02-14T19:46:44;102459.95;;;4.79;76.74
48095;BME280;33874;52.070;-0.516;2023-02-14T19:52:24;102461.00;;;4.63;76.64
48095;BME280;33874;52.070;-0.516;2023-02-14T19:54:57;102463.48;;;4.56;76.69
48095;BME280;33874;52.070;-0.516;2023-02-14T19:57:29;102463.20;;;4.49;76.67
48095;BME280;33874;52.070;-0.516;2023-02-14T20:00:18;102459.19;;;4.44;76.65
48095;BME280;33874;52.070;-0.516;2023-02-14T20:02:51;102456.89;;;4.39;76.83
48095;BME280;33874;52.070;-0.516;2023-02-14T20:05:20;102456.35;;;4.35;76.98
48095;BME280;33874;52.070;-0.516;2023-02-14T20:07:58;102454.02;;;4.31;77.03
48095;BME280;33874;52.070;-0.516;2023-02-14T20:13:11;102447.20;;;4.26;77.45
48095;BME280;33874;52.070;-0.516;2023-02-14T20:15:45;102444.98;;;4.24;77.57
48095;BME280;33874;52.070;-0.516;2023-02-14T20:18:21;102443.97;;;4.24;77.80
48095;BME280;33874;52.070;-0.516;2023-02-14T20:20:57;102440.48;;;4.24;77.97
48095;BME280;33874;52.070;-0.516;2023-02-14T20:23:31;102440.95;;;4.26;78.08
48095;BME280;33874;52.070;-0.516;2023-02-14T20:26:03;102438.57;;;4.24;77.75
48095;BME280;33874;52.070;-0.516;2023-02-14T20:28:31;102437.95;;;4.21;77.86
48095;BME280;33874;52.070;-0.516;2023-02-14T20:31:04;102436.45;;;4.20;77.66
48095;BME280;33874;52.070;-0.516;2023-02-14T20:33:32;102434.83;;;4.16;77.57
48095;BME280;33874;52.070;-0.516;2023-02-14T20:36:04;102430.94;;;4.12;77.59
48095;BME280;33874;52.070;-0.516;2023-02-14T20:38:33;102426.89;;;4.08;77.58
48095;BME280;33874;52.070;-0.516;2023-02-14T20:41:09;102425.85;;;4.03;77.44
48095;BME280;33874;52.070;-0.516;2023-02-14T20:43:46;102421.67;;;3.97;77.55
48095;BME280;33874;52.070;-0.516;2023-02-14T20:46:17;102417.11;;;3.93;77.32
48095;BME280;33874;52.070;-0.516;2023-02-14T20:48:48;102413.81;;;3.87;77.35
48095;BME280;33874;52.070;-0.516;2023-02-14T20:54:05;102413.48;;;3.74;77.28
48095;BME280;33874;52.070;-0.516;2023-02-14T20:56:34;102412.16;;;3.66;77.03
48095;BME280;33874;52.070;-0.516;2023-02-14T20:59:02;102411.47;;;3.60;77.10